Unity Force — C6BY4 — position and weather

sailwx.info

Track history (hours):
 
Tides and Currents Weather Stations Pressure Air Temp Water Temp Dewpoint Dewpoint Depression Visibility Wind Speed Wind Dir Waves Ship Positions

Unity Force

Last reported at 2018-May-16 00:48 UTC. Time now 2018-May-26 04:29 UTC.
Position N 58°36' E 004°19'.
Warning: this ship's position is 10 days out of date.

Length 200 m; draft 12.6 m.

Type: Cargo ship. MMSI: 311000400.

Date/timePositionNaut miles runAvg speedWind from/ knotsBaromVisibWave heightAir tempDewpointWater temp
2018-May-16 00:48N 58°36' E 004°19'411.3
2018-May-16 00:26N 58°34' E 004°26'511.3
2018-May-16 00:00N 58°32' E 004°34'611.6
2018-May-15 23:30N 58°30' E 004°45'611.9
2018-May-15 22:58N 58°28' E 004°56'611.8
2018-May-15 22:30N 58°26' E 005°06'712.3
2018-May-15 21:58N 58°24' E 005°18'612.6
2018-May-15 21:30N 58°20' E 005°26'612.4
2018-May-15 21:00N 58°16' E 005°36'611.9
2018-May-15 20:30N 58°12' E 005°44'612.2
2018-May-15 20:00N 58°08' E 005°53'612.2
2018-May-15 19:28N 58°04' E 006°02'612.4
2018-May-15 18:59N 58°00' E 006°11'612.4
2018-May-15 18:30N 57°56' E 006°20'612.2
2018-May-15 17:59N 57°52' E 006°29'612.1
2018-May-15 17:30N 57°49' E 006°38'612.0
2018-May-15 17:00N 57°47' E 006°49'612.1
2018-May-15 16:30N 57°47' E 006°60'612.1
2018-May-15 16:00N 57°47' E 007°11'612.3
2018-May-15 15:30N 57°46' E 007°23'612.2
2018-May-15 15:00N 57°46' E 007°34'612.0
2018-May-15 14:30N 57°46' E 007°45'612.1
2018-May-15 14:00N 57°46' E 007°56'612.4
2018-May-15 13:30N 57°46' E 008°08'2112.5
2018-May-15 11:47N 57°47' E 008°48'412.4
2018-May-15 11:30N 57°47' E 008°55'612.2
2018-May-15 11:00N 57°48' E 009°06'611.9
2018-May-15 10:30N 57°48' E 009°17'611.8
2018-May-15 10:00N 57°48' E 009°28'611.7
2018-May-15 09:30N 57°49' E 009°39'611.8
2018-May-15 09:00N 57°49' E 009°50'611.5
2018-May-15 08:30N 57°50' E 010°01'611.5
2018-May-15 08:00N 57°50' E 010°12'611.8
2018-May-15 07:30N 57°51' E 010°23'611.5
2018-May-15 07:00N 57°51' E 010°34'511.0
2018-May-15 06:30N 57°50' E 010°44'611.3
2018-May-15 06:00N 57°46' E 010°51'5 9.6
2018-May-15 05:30N 57°43' E 010°57'611.4
2018-May-15 05:00N 57°39' E 011°05'611.5
2018-May-15 04:30N 57°35' E 011°13'611.4
2018-May-15 04:00N 57°31' E 011°20'510.9
2018-May-15 03:30N 57°26' E 011°26'611.6
2018-May-15 03:00N 57°21' E 011°30'611.8
2018-May-15 02:30N 57°15' E 011°34'611.6
2018-May-15 02:00N 57°10' E 011°37'611.6
2018-May-15 01:30N 57°04' E 011°41'611.5
2018-May-15 00:59N 56°59' E 011°45'511.4
2018-May-15 00:30N 56°54' E 011°48'611.6
2018-May-15 00:00N 56°48' E 011°52'510.6
2018-May-14 23:30N 56°43' E 011°51'611.6
2018-May-14 23:00N 56°39' E 011°44'610.9
2018-May-14 22:25N 56°33' E 011°38'610.7
2018-May-14 21:50N 56°27' E 011°35'6510.1
2018-May-14 15:26N 55°25' E 010°59'710.6
2018-May-14 14:44N 55°18' E 011°03'210.4
2018-May-14 14:30N 55°16' E 011°04'4 8.7
2018-May-14 14:00N 55°12' E 011°05'5 9.4
2018-May-14 13:30N 55°08' E 010°60'510.5
2018-May-14 13:00N 55°03' E 010°60'510.2
2018-May-14 12:30N 54°58' E 010°57'5 9.0
2018-May-14 12:00N 54°55' E 010°52'4 8.5
2018-May-14 11:30N 54°51' E 010°50'611.6
2018-May-14 11:00N 54°45' E 010°48'510.2
2018-May-14 10:30N 54°40' E 010°49'611.9
2018-May-14 10:00N 54°37' E 010°58'611.5
2018-May-14 09:30N 54°36' E 011°08'612.1
2018-May-14 09:00N 54°34' E 011°17'612.2
2018-May-14 08:30N 54°31' E 011°27'612.2
2018-May-14 08:00N 54°29' E 011°36'612.1
2018-May-14 07:30N 54°26' E 011°46'612.0
2018-May-14 07:00N 54°26' E 011°56'611.4
2018-May-14 06:28N 54°26' E 012°07'5 9.4
2018-May-14 05:59N 54°29' E 012°13'510.7
2018-May-14 05:30N 54°34' E 012°15'5 9.2
2018-May-14 05:00N 54°38' E 012°19'4 7.8
2018-May-14 04:30N 54°40' E 012°24'4 7.7
2018-May-14 04:00N 54°42' E 012°30'4 7.2
2018-May-14 03:30N 54°45' E 012°35'3 6.0
2018-May-14 03:00N 54°46' E 012°39'5 9.9
2018-May-14 02:30N 54°48' E 012°47'4 7.2
2018-May-14 02:00N 54°49' E 012°53'4 7.9
2018-May-14 01:30N 54°51' E 012°59'611.3
2018-May-14 01:00N 54°53' E 013°09'611.3
2018-May-14 00:30N 54°55' E 013°18'611.3
2018-May-14 00:00N 54°57' E 013°27'611.8
2018-May-13 23:30N 54°60' E 013°36'611.9
2018-May-13 23:00N 55°03' E 013°45'611.5
2018-May-13 22:30N 55°05' E 013°54'611.0
2018-May-13 22:00N 55°04' E 014°04'611.2
2018-May-13 21:27N 55°09' E 014°11'511.4
2018-May-13 21:00N 55°13' E 014°16'611.5
2018-May-13 20:30N 55°18' E 014°22'611.6
2018-May-13 20:00N 55°22' E 014°28'611.7
2018-May-13 19:30N 55°27' E 014°35'611.8
2018-May-13 19:00N 55°30' E 014°44'611.7
2018-May-13 18:30N 55°32' E 014°53'611.8
2018-May-13 18:00N 55°35' E 015°03'611.7
2018-May-13 17:30N 55°38' E 015°12'611.5
2018-May-13 17:00N 55°39' E 015°22'611.7
2018-May-13 16:30N 55°40' E 015°32'611.8
2018-May-13 16:00N 55°42' E 015°42'611.8
2018-May-13 15:30N 55°44' E 015°52'611.9
2018-May-13 15:00N 55°45' E 016°02'611.5
2018-May-13 14:30N 55°47' E 016°12'611.6
2018-May-13 14:00N 55°48' E 016°22'611.5
2018-May-13 13:30N 55°49' E 016°32'611.6
2018-May-13 13:00N 55°51' E 016°42'611.6
2018-May-13 12:30N 55°52' E 016°52'611.6
2018-May-13 12:00N 55°54' E 017°02'611.9
2018-May-13 11:30N 55°55' E 017°13'611.8
2018-May-13 11:00N 55°56' E 017°23'611.8
2018-May-13 10:30N 55°58' E 017°33'611.8
2018-May-13 10:00N 55°60' E 017°43'611.6
2018-May-13 09:30N 56°03' E 017°52'611.4
2018-May-13 08:59N 56°06' E 018°01'511.3
2018-May-13 08:30N 56°09' E 018°09'711.3
2018-May-13 07:55N 56°12' E 018°19'511.3
2018-May-13 07:30N 56°15' E 018°26'  
Track history (hours):
 
Tides and Currents Weather Stations Pressure Air Temp Water Temp Dewpoint Dewpoint Depression Visibility Wind Speed Wind Dir Waves Ship Positions

Unity Force

Last reported at 2018-May-16 00:48 UTC. Time now 2018-May-26 04:29 UTC.
Position N 58°36' E 004°19'.
Warning: this ship's position is 10 days out of date.

Length 200 m; draft 12.6 m.

Type: Cargo ship. MMSI: 311000400.

Date/timePositionNaut miles runAvg speedWind from/ knotsBaromVisibWave heightAir tempDewpointWater temp
2018-May-16 00:48N 58°36' E 004°19'411.3
2018-May-16 00:26N 58°34' E 004°26'511.3
2018-May-16 00:00N 58°32' E 004°34'611.6
2018-May-15 23:30N 58°30' E 004°45'611.9
2018-May-15 22:58N 58°28' E 004°56'611.8
2018-May-15 22:30N 58°26' E 005°06'712.3
2018-May-15 21:58N 58°24' E 005°18'612.6
2018-May-15 21:30N 58°20' E 005°26'612.4
2018-May-15 21:00N 58°16' E 005°36'611.9
2018-May-15 20:30N 58°12' E 005°44'612.2
2018-May-15 20:00N 58°08' E 005°53'612.2
2018-May-15 19:28N 58°04' E 006°02'612.4
2018-May-15 18:59N 58°00' E 006°11'612.4
2018-May-15 18:30N 57°56' E 006°20'612.2
2018-May-15 17:59N 57°52' E 006°29'612.1
2018-May-15 17:30N 57°49' E 006°38'612.0
2018-May-15 17:00N 57°47' E 006°49'612.1
2018-May-15 16:30N 57°47' E 006°60'612.1
2018-May-15 16:00N 57°47' E 007°11'612.3
2018-May-15 15:30N 57°46' E 007°23'612.2
2018-May-15 15:00N 57°46' E 007°34'612.0
2018-May-15 14:30N 57°46' E 007°45'612.1
2018-May-15 14:00N 57°46' E 007°56'612.4
2018-May-15 13:30N 57°46' E 008°08'2112.5
2018-May-15 11:47N 57°47' E 008°48'412.4
2018-May-15 11:30N 57°47' E 008°55'612.2
2018-May-15 11:00N 57°48' E 009°06'611.9
2018-May-15 10:30N 57°48' E 009°17'611.8
2018-May-15 10:00N 57°48' E 009°28'611.7
2018-May-15 09:30N 57°49' E 009°39'611.8
2018-May-15 09:00N 57°49' E 009°50'611.5
2018-May-15 08:30N 57°50' E 010°01'611.5
2018-May-15 08:00N 57°50' E 010°12'611.8
2018-May-15 07:30N 57°51' E 010°23'611.5
2018-May-15 07:00N 57°51' E 010°34'511.0
2018-May-15 06:30N 57°50' E 010°44'611.3
2018-May-15 06:00N 57°46' E 010°51'5 9.6
2018-May-15 05:30N 57°43' E 010°57'611.4
2018-May-15 05:00N 57°39' E 011°05'611.5
2018-May-15 04:30N 57°35' E 011°13'611.4
2018-May-15 04:00N 57°31' E 011°20'510.9
2018-May-15 03:30N 57°26' E 011°26'611.6
2018-May-15 03:00N 57°21' E 011°30'611.8
2018-May-15 02:30N 57°15' E 011°34'611.6
2018-May-15 02:00N 57°10' E 011°37'611.6
2018-May-15 01:30N 57°04' E 011°41'611.5
2018-May-15 00:59N 56°59' E 011°45'511.4
2018-May-15 00:30N 56°54' E 011°48'611.6
2018-May-15 00:00N 56°48' E 011°52'510.6
2018-May-14 23:30N 56°43' E 011°51'611.6
2018-May-14 23:00N 56°39' E 011°44'610.9
2018-May-14 22:25N 56°33' E 011°38'610.7
2018-May-14 21:50N 56°27' E 011°35'6510.1
2018-May-14 15:26N 55°25' E 010°59'710.6
2018-May-14 14:44N 55°18' E 011°03'210.4
2018-May-14 14:30N 55°16' E 011°04'4 8.7
2018-May-14 14:00N 55°12' E 011°05'5 9.4
2018-May-14 13:30N 55°08' E 010°60'510.5
2018-May-14 13:00N 55°03' E 010°60'510.2
2018-May-14 12:30N 54°58' E 010°57'5 9.0
2018-May-14 12:00N 54°55' E 010°52'4 8.5
2018-May-14 11:30N 54°51' E 010°50'611.6
2018-May-14 11:00N 54°45' E 010°48'510.2
2018-May-14 10:30N 54°40' E 010°49'611.9
2018-May-14 10:00N 54°37' E 010°58'611.5
2018-May-14 09:30N 54°36' E 011°08'612.1
2018-May-14 09:00N 54°34' E 011°17'612.2
2018-May-14 08:30N 54°31' E 011°27'612.2
2018-May-14 08:00N 54°29' E 011°36'612.1
2018-May-14 07:30N 54°26' E 011°46'612.0
2018-May-14 07:00N 54°26' E 011°56'611.4
2018-May-14 06:28N 54°26' E 012°07'5 9.4
2018-May-14 05:59N 54°29' E 012°13'510.7
2018-May-14 05:30N 54°34' E 012°15'5 9.2
2018-May-14 05:00N 54°38' E 012°19'4 7.8
2018-May-14 04:30N 54°40' E 012°24'4 7.7
2018-May-14 04:00N 54°42' E 012°30'4 7.2
2018-May-14 03:30N 54°45' E 012°35'3 6.0
2018-May-14 03:00N 54°46' E 012°39'5 9.9
2018-May-14 02:30N 54°48' E 012°47'4 7.2
2018-May-14 02:00N 54°49' E 012°53'4 7.9
2018-May-14 01:30N 54°51' E 012°59'611.3
2018-May-14 01:00N 54°53' E 013°09'611.3
2018-May-14 00:30N 54°55' E 013°18'611.3
2018-May-14 00:00N 54°57' E 013°27'611.8
2018-May-13 23:30N 54°60' E 013°36'611.9
2018-May-13 23:00N 55°03' E 013°45'611.5
2018-May-13 22:30N 55°05' E 013°54'611.0
2018-May-13 22:00N 55°04' E 014°04'611.2
2018-May-13 21:27N 55°09' E 014°11'511.4
2018-May-13 21:00N 55°13' E 014°16'611.5
2018-May-13 20:30N 55°18' E 014°22'611.6
2018-May-13 20:00N 55°22' E 014°28'611.7
2018-May-13 19:30N 55°27' E 014°35'611.8
2018-May-13 19:00N 55°30' E 014°44'611.7
2018-May-13 18:30N 55°32' E 014°53'611.8
2018-May-13 18:00N 55°35' E 015°03'611.7
2018-May-13 17:30N 55°38' E 015°12'611.5
2018-May-13 17:00N 55°39' E 015°22'611.7
2018-May-13 16:30N 55°40' E 015°32'611.8
2018-May-13 16:00N 55°42' E 015°42'611.8
2018-May-13 15:30N 55°44' E 015°52'611.9
2018-May-13 15:00N 55°45' E 016°02'611.5
2018-May-13 14:30N 55°47' E 016°12'611.6
2018-May-13 14:00N 55°48' E 016°22'611.5
2018-May-13 13:30N 55°49' E 016°32'611.6
2018-May-13 13:00N 55°51' E 016°42'611.6
2018-May-13 12:30N 55°52' E 016°52'611.6
2018-May-13 12:00N 55°54' E 017°02'611.9
2018-May-13 11:30N 55°55' E 017°13'611.8
2018-May-13 11:00N 55°56' E 017°23'611.8
2018-May-13 10:30N 55°58' E 017°33'611.8
2018-May-13 10:00N 55°60' E 017°43'611.6
2018-May-13 09:30N 56°03' E 017°52'611.4
2018-May-13 08:59N 56°06' E 018°01'511.3
2018-May-13 08:30N 56°09' E 018°09'711.3
2018-May-13 07:55N 56°12' E 018°19'511.3
2018-May-13 07:30N 56°15' E 018°26'  

Dump ship's entire track history